Time;durP1;ratioP1;P1;durP2;ratioP2;P2;SDS_P1;SDS_P2;PMS_P1;PMS_P2;Temp;Humidity;BMP_temperature;BMP_pressure;BME280_temperature;BME280_humidity;BME280_pressure;Samples;Min_cycle;Max_cycle;Signal;HPM_P1;HPM_P2
2022/11/23 00:00:00;;;;;;;7.55;4.70;;;;;;;4.32;79.26;98183.56;341579;28;1467;-69
2022/11/23 00:00:13;;;;;;;7.32;4.97;;;;;;;4.17;79.16;98184.91;340200;28;1818;-69
2022/11/23 00:00:25;;;;;;;6.75;4.70;;;;;;;4.19;79.27;98177.97;342099;28;1348;-69
2022/11/23 00:00:37;;;;;;;7.45;5.05;;;;;;;4.32;79.94;98184.41;341738;28;2185;-69
2022/11/23 00:00:50;;;;;;;8.63;6.15;;;;;;;4.31;79.73;98181.91;341544;28;1892;-69
2022/11/23 00:01:20;;;;;;;9.45;7.40;;;;;;;4.44;79.50;98182.34;343402;28;1042;-69
2022/11/23 00:01:35;;;;;;;7.97;5.70;;;;;;;4.45;79.19;98176.31;341108;29;1108;-69
2022/11/23 00:01:47;;;;;;;7.75;5.15;;;;;;;4.29;78.81;98184.50;340903;29;1056;-69
2022/11/23 00:01:59;;;;;;;7.25;4.55;;;;;;;4.29;78.32;98183.69;339786;29;1052;-69
2022/11/23 00:02:11;;;;;;;6.22;3.58;;;;;;;4.34;78.66;98181.78;340155;29;1206;-69
2022/11/23 00:02:23;;;;;;;5.97;3.20;;;;;;;4.38;78.65;98179.06;341758;28;1283;-69
2022/11/23 00:02:36;;;;;;;4.85;2.83;;;;;;;4.45;78.80;98178.88;342578;28;1245;-69
2022/11/23 00:02:54;;;;;;;6.25;3.45;;;;;;;4.54;79.72;98181.16;342780;28;2142;-69
2022/11/23 00:03:06;;;;;;;6.28;4.43;;;;;;;4.55;79.13;98180.28;340847;29;1121;-69
2022/11/23 00:03:18;;;;;;;5.60;4.13;;;;;;;4.58;78.87;98182.75;341660;28;1259;-69
2022/11/23 00:03:30;;;;;;;6.80;3.97;;;;;;;4.57;78.83;98181.09;342313;28;1283;-69
2022/11/23 00:03:43;;;;;;;7.35;3.97;;;;;;;4.53;77.76;98177.75;341971;28;1369;-69
2022/11/23 00:03:59;;;;;;;7.50;3.60;;;;;;;4.51;77.88;98178.72;342385;28;1381;-69
2022/11/23 00:04:11;;;;;;;7.18;3.97;;;;;;;4.45;78.18;98178.88;343673;28;1743;-69
2022/11/23 00:04:24;;;;;;;5.75;4.22;;;;;;;4.39;77.69;98180.78;342464;28;2291;-68
2022/11/23 00:04:36;;;;;;;6.15;4.72;;;;;;;4.38;77.51;98178.22;342088;28;949;-69
2022/11/23 00:04:48;;;;;;;9.05;5.25;;;;;;;4.42;77.53;98181.56;343045;28;1735;-69
2022/11/23 00:05:01;;;;;;;9.55;5.15;;;;;;;4.42;78.01;98173.84;342351;28;1040;-69
2022/11/23 00:05:13;;;;;;;6.35;4.93;;;;;;;4.39;77.65;98173.03;342333;28;1729;-69
2022/11/23 00:05:27;;;;;;;6.07;4.50;;;;;;;4.22;77.19;98183.00;343024;28;1662;-69
2022/11/23 00:05:39;;;;;;;6.43;4.50;;;;;;;4.20;77.42;98174.50;342970;28;2000;-69
2022/11/23 00:05:51;;;;;;;7.15;4.60;;;;;;;4.25;77.49;98176.94;343957;28;1739;-69
2022/11/23 00:06:03;;;;;;;6.57;4.32;;;;;;;4.29;78.15;98173.41;343485;28;1050;-69
2022/11/23 00:06:16;;;;;;;6.70;3.92;;;;;;;4.31;78.90;98172.44;343476;28;1653;-69
2022/11/23 00:06:28;;;;;;;6.28;3.58;;;;;;;4.36;80.04;98175.69;342612;28;1565;-69
2022/11/23 00:06:41;;;;;;;6.30;3.42;;;;;;;4.40;79.32;98176.44;345090;28;1765;-69
2022/11/23 00:06:52;;;;;;;6.93;3.53;;;;;;;4.44;79.92;98182.34;344854;28;1158;-69
2022/11/23 00:07:04;;;;;;;6.25;3.28;;;;;;;4.45;80.21;98182.31;343939;28;1072;-69
2022/11/23 00:07:17;;;;;;;5.40;3.20;;;;;;;4.49;80.13;98180.50;343600;28;1224;-69
2022/11/23 00:07:29;;;;;;;6.20;2.97;;;;;;;4.53;80.15;98174.34;343190;28;1518;-69
2022/11/23 00:07:40;;;;;;;6.60;2.90;;;;;;;4.59;80.59;98181.88;342526;28;1034;-69
2022/11/23 00:07:53;;;;;;;5.97;3.08;;;;;;;4.56;80.26;98176.81;342298;28;1031;-69
2022/11/23 00:08:05;;;;;;;6.03;3.25;;;;;;;4.57;79.30;98178.50;344520;28;1811;-69
2022/11/23 00:08:17;;;;;;;6.60;3.40;;;;;;;4.58;78.85;98175.03;344598;28;1391;-69
2022/11/23 00:08:29;;;;;;;7.45;3.92;;;;;;;4.61;78.99;98169.81;344666;28;1020;-69
2022/11/23 00:08:42;;;;;;;7.53;4.30;;;;;;;4.51;78.45;98176.13;344226;28;1265;-69
2022/11/23 00:08:54;;;;;;;6.10;3.85;;;;;;;4.52;78.55;98173.50;343346;28;1035;-69
2022/11/23 00:09:08;;;;;;;5.95;3.53;;;;;;;4.45;77.77;98171.16;343616;28;1297;-69
2022/11/23 00:09:20;;;;;;;7.20;3.92;;;;;;;4.50;78.54;98166.72;344163;28;1359;-69
2022/11/23 00:09:32;;;;;;;8.43;4.30;;;;;;;4.54;78.29;98176.03;343681;28;1325;-69
2022/11/23 00:09:45;;;;;;;9.13;4.50;;;;;;;4.58;78.33;98172.47;343446;28;1245;-69
2022/11/23 00:09:57;;;;;;;8.38;4.47;;;;;;;4.65;78.55;98170.53;343408;28;1708;-69
2022/11/23 00:10:09;;;;;;;7.28;4.25;;;;;;;4.68;78.26;98176.41;342170;28;1436;-69
2022/11/23 00:10:21;;;;;;;9.10;4.75;;;;;;;4.66;78.31;98180.78;341679;28;1271;-69
2022/11/23 00:10:33;;;;;;;8.57;4.93;;;;;;;4.68;77.30;98178.16;341828;28;1546;-69
2022/11/23 00:10:45;;;;;;;8.93;5.20;;;;;;;4.64;77.00;98174.84;342007;28;1093;-69
2022/11/23 00:10:58;;;;;;;6.88;5.07;;;;;;;4.63;77.18;98173.16;342617;28;1090;-69
2022/11/23 00:11:10;;;;;;;8.98;4.45;;;;;;;4.63;77.02;98168.03;342415;28;1028;-69
2022/11/23 00:11:24;;;;;;;10.30;4.32;;;;;;;4.58;77.48;98175.03;342108;28;1284;-69
2022/11/23 00:11:37;;;;;;;10.57;4.30;;;;;;;4.61;77.11;98172.38;342458;28;1044;-69
2022/11/23 00:11:49;;;;;;;7.00;4.05;;;;;;;4.63;76.55;98172.31;342396;28;1091;-69
2022/11/23 00:12:01;;;;;;;7.55;4.03;;;;;;;4.63;76.71;98172.31;341685;28;1827;-69
2022/11/23 00:12:12;;;;;;;6.82;4.20;;;;;;;4.57;76.29;98173.38;342274;28;1654;-69
2022/11/23 00:12:24;;;;;;;6.78;4.22;;;;;;;4.57;75.87;98178.50;342274;28;1195;-69
2022/11/23 00:12:37;;;;;;;6.45;4.18;;;;;;;4.52;76.69;98176.06;341029;28;1642;-69
2022/11/23 00:12:49;;;;;;;6.65;3.97;;;;;;;4.53;76.86;98169.22;343639;28;1060;-69
2022/11/23 00:13:01;;;;;;;6.97;3.75;;;;;;;4.47;77.13;98164.25;343613;28;1191;-69
2022/11/23 00:13:13;;;;;;;7.10;4.07;;;;;;;4.47;76.90;98172.81;343487;28;1087;-69
2022/11/23 00:13:25;;;;;;;6.32;4.18;;;;;;;4.50;76.94;98171.88;344655;28;1248;-69
2022/11/23 00:13:39;;;;;;;5.47;4.07;;;;;;;4.49;77.81;98167.63;343891;28;1318;-69
2022/11/23 00:13:52;;;;;;;7.30;4.18;;;;;;;4.54;77.75;98173.44;343665;28;1564;-69
2022/11/23 00:14:05;;;;;;;8.68;4.18;;;;;;;4.56;78.09;98176.81;344214;28;1308;-69
2022/11/23 00:14:17;;;;;;;6.57;4.13;;;;;;;4.59;78.19;98166.44;343050;28;1202;-69
2022/11/23 00:14:29;;;;;;;5.55;3.97;;;;;;;4.60;77.72;98174.09;342043;28;1043;-69
2022/11/23 00:14:41;;;;;;;5.40;4.05;;;;;;;4.63;77.75;98177.44;340998;29;1143;-69
2022/11/23 00:14:53;;;;;;;6.20;4.18;;;;;;;4.64;78.16;98172.25;340036;29;1832;-69
2022/11/23 00:15:06;;;;;;;6.45;4.25;;;;;;;4.67;78.20;98173.88;340892;29;1569;-69
2022/11/23 00:15:18;;;;;;;5.43;4.00;;;;;;;4.70;78.14;98169.50;339610;29;1503;-69
2022/11/23 00:15:31;;;;;;;5.63;4.10;;;;;;;4.71;77.73;98175.47;339813;29;933;-71
2022/11/23 00:15:43;;;;;;;6.30;4.10;;;;;;;4.73;78.20;98174.53;340838;29;1100;-69
2022/11/23 00:15:55;;;;;;;6.70;3.92;;;;;;;4.75;78.37;98172.75;342141;28;1703;-69
2022/11/23 00:16:18;;;;;;;6.15;3.75;;;;;;;4.78;78.26;98172.66;342371;28;1019;-69
2022/11/23 00:16:30;;;;;;;5.85;3.60;;;;;;;4.83;78.47;98169.94;341890;28;1234;-69
2022/11/23 00:16:43;;;;;;;4.85;3.33;;;;;;;4.83;77.89;98174.22;342169;28;1177;-69
2022/11/23 00:16:55;;;;;;;5.80;3.47;;;;;;;4.82;78.69;98173.41;340647;29;1072;-69
2022/11/23 00:17:07;;;;;;;6.60;3.60;;;;;;;4.87;78.26;98170.66;340882;29;1045;-69
2022/11/23 00:17:19;;;;;;;6.15;3.80;;;;;;;4.88;78.26;98174.94;341640;28;1340;-69
2022/11/23 00:17:31;;;;;;;6.50;3.60;;;;;;;4.87;78.00;98174.09;341616;28;1227;-69
2022/11/23 00:17:47;;;;;;;6.80;3.65;;;;;;;4.83;77.72;98174.22;343763;28;1219;-69
2022/11/23 00:17:59;;;;;;;7.55;3.90;;;;;;;4.77;78.10;98176.13;340919;29;1058;-69
2022/11/23 00:18:11;;;;;;;7.68;3.95;;;;;;;4.76;78.92;98174.44;341063;29;1091;-69
2022/11/23 00:18:23;;;;;;;7.63;4.03;;;;;;;4.71;79.20;98173.75;340797;29;1306;-69
2022/11/23 00:18:35;;;;;;;8.38;3.95;;;;;;;4.68;79.21;98180.72;340456;29;1911;-69
2022/11/23 00:18:47;;;;;;;8.45;3.80;;;;;;;4.68;79.18;98176.41;341116;29;1244;-69
2022/11/23 00:19:01;;;;;;;7.22;3.50;;;;;;;4.62;79.59;98170.63;341317;28;1181;-69
2022/11/23 00:19:13;;;;;;;7.40;3.53;;;;;;;4.62;79.97;98178.34;340833;29;1051;-69
2022/11/23 00:19:25;;;;;;;7.50;3.58;;;;;;;4.63;80.04;98178.31;340609;28;2028;-69
2022/11/23 00:19:37;;;;;;;8.18;3.63;;;;;;;4.62;80.41;98176.63;342218;28;1218;-69
2022/11/23 00:19:49;;;;;;;7.38;3.80;;;;;;;4.52;80.28;98178.63;342198;28;1225;-69
2022/11/23 00:20:01;;;;;;;6.22;3.90;;;;;;;4.46;80.63;98175.44;342316;28;1329;-69
2022/11/23 00:20:13;;;;;;;5.32;3.70;;;;;;;4.38;80.57;98173.91;342430;28;1107;-69
2022/11/23 00:20:25;;;;;;;5.70;3.50;;;;;;;4.38;80.46;98178.22;340429;28;1635;-69
2022/11/23 00:20:38;;;;;;;6.05;3.30;;;;;;;4.39;80.69;98175.63;340812;28;1554;-69
2022/11/23 00:20:50;;;;;;;7.07;3.30;;;;;;;4.47;81.01;98169.41;341179;28;1720;-69
2022/11/23 00:21:11;;;;;;;6.07;3.17;;;;;;;4.41;81.18;98173.00;341399;28;1461;-69
2022/11/23 00:21:25;;;;;;;4.60;2.83;;;;;;;4.40;81.71;98172.16;340218;29;1202;-69
2022/11/23 00:21:37;;;;;;;5.93;2.88;;;;;;;4.40;81.70;98172.16;340940;29;1397;-69
2022/11/23 00:21:49;;;;;;;6.47;3.25;;;;;;;4.33;80.91;98178.38;340925;29;1109;-69
2022/11/23 00:22:02;;;;;;;6.07;3.33;;;;;;;4.34;81.24;98167.19;339815;29;1202;-69
2022/11/23 00:22:14;;;;;;;4.78;2.90;;;;;;;4.31;81.33;98167.31;339894;29;1056;-69
2022/11/23 00:22:25;;;;;;;5.53;3.00;;;;;;;4.23;81.18;98173.59;338743;29;1594;-69
2022/11/23 00:22:38;;;;;;;6.20;3.05;;;;;;;4.29;80.93;98174.22;340617;28;1965;-69
2022/11/23 00:22:50;;;;;;;6.97;2.80;;;;;;;4.30;80.58;98170.75;342193;28;1156;-69
2022/11/23 00:23:02;;;;;;;6.88;2.85;;;;;;;4.22;80.46;98172.72;342391;28;1059;-69
2022/11/23 00:23:14;;;;;;;5.97;3.00;;;;;;;4.24;80.71;98175.25;342561;28;1278;-69
2022/11/23 00:23:26;;;;;;;5.55;2.95;;;;;;;4.16;80.20;98167.75;342226;28;1243;-69
2022/11/23 00:23:38;;;;;;;6.30;2.88;;;;;;;4.03;79.53;98171.63;341872;28;1378;-69
2022/11/23 00:23:51;;;;;;;6.45;2.70;;;;;;;3.95;79.56;98171.84;342547;28;1203;-69
2022/11/23 00:24:03;;;;;;;6.57;2.70;;;;;;;3.77;79.57;98171.47;343985;28;1294;-69
2022/11/23 00:24:16;;;;;;;5.78;2.72;;;;;;;3.81;79.85;98177.38;344130;28;1399;-69
2022/11/23 00:24:28;;;;;;;5.47;2.58;;;;;;;3.78;79.67;98175.75;343235;28;1962;-69
2022/11/23 00:24:40;;;;;;;5.28;2.42;;;;;;;3.82;79.76;98168.75;342431;28;1131;-69
2022/11/23 00:24:52;;;;;;;3.95;2.20;;;;;;;3.90;79.69;98179.66;341068;29;765;-69
2022/11/23 00:25:04;;;;;;;4.45;2.22;;;;;;;3.94;79.67;98177.84;341011;29;1086;-69
2022/11/23 00:25:17;;;;;;;5.30;2.25;;;;;;;3.95;79.63;98176.97;341042;28;1405;-69
2022/11/23 00:25:29;;;;;;;5.60;2.28;;;;;;;3.98;80.05;98172.59;342383;28;1280;-69
2022/11/23 00:25:44;;;;;;;5.70;2.42;;;;;;;4.02;79.49;98175.06;342261;28;1643;-69
2022/11/23 00:25:56;;;;;;;6.18;2.45;;;;;;;4.04;79.73;98179.25;342311;28;1214;-69
2022/11/23 00:26:08;;;;;;;5.43;2.45;;;;;;;4.07;79.09;98173.19;341493;28;1067;-69
2022/11/23 00:26:21;;;;;;;4.68;2.35;;;;;;;4.10;79.53;98173.94;340483;29;1695;-69
2022/11/23 00:26:33;;;;;;;5.40;2.40;;;;;;;4.09;79.22;98179.13;340910;29;1084;-69
2022/11/23 00:26:45;;;;;;;5.05;2.53;;;;;;;4.11;79.32;98174.78;341920;28;1277;-69
2022/11/23 00:26:57;;;;;;;5.07;2.78;;;;;;;4.11;79.34;98170.47;342088;28;1368;-69
2022/11/23 00:27:09;;;;;;;5.35;2.95;;;;;;;4.15;78.46;98176.38;342394;28;1506;-69
2022/11/23 00:27:21;;;;;;;5.78;2.92;;;;;;;4.16;78.64;98180.63;343362;28;1358;-69
2022/11/23 00:27:33;;;;;;;5.57;2.90;;;;;;;4.09;79.50;98181.72;342900;28;2570;-69
2022/11/23 00:27:45;;;;;;;4.97;3.10;;;;;;;4.11;79.44;98179.94;341632;28;1728;-69
2022/11/23 00:27:57;;;;;;;5.40;3.28;;;;;;;4.12;79.05;98177.28;341829;28;1096;-69
2022/11/23 00:28:09;;;;;;;6.22;3.65;;;;;;;4.12;79.03;98181.59;340828;29;1035;-69
2022/11/23 00:28:21;;;;;;;6.72;3.78;;;;;;;4.10;78.56;98175.66;340985;28;1313;-69
2022/11/23 00:28:37;;;;;;;8.02;3.60;;;;;;;4.09;78.66;98177.41;341177;29;1010;-69
2022/11/23 00:28:49;;;;;;;7.30;3.50;;;;;;;4.02;78.44;98180.19;341069;29;1100;-69
2022/11/23 00:29:01;;;;;;;6.30;3.47;;;;;;;3.99;77.76;98181.97;341687;28;1018;-69
2022/11/23 00:29:13;;;;;;;5.13;3.53;;;;;;;3.99;78.66;98181.97;342257;28;1219;-69
2022/11/23 00:29:26;;;;;;;5.45;3.50;;;;;;;4.04;78.40;98183.56;341384;28;1477;-69
2022/11/23 00:29:38;;;;;;;5.63;3.15;;;;;;;4.07;78.73;98180.91;340979;29;1113;-69
2022/11/23 00:29:50;;;;;;;5.30;2.70;;;;;;;4.15;79.26;98181.53;340756;29;1253;-69
2022/11/23 00:30:03;;;;;;;3.75;2.40;;;;;;;4.16;80.13;98178.06;341014;29;1103;-69
2022/11/23 00:30:15;;;;;;;4.55;2.40;;;;;;;4.24;80.18;98181.22;341796;28;1027;-69
2022/11/23 00:30:28;;;;;;;4.10;2.40;;;;;;;4.30;80.12;98175.91;342253;28;1512;-69
2022/11/23 00:30:40;;;;;;;4.32;2.30;;;;;;;4.38;80.47;98178.22;341892;28;1072;-69
2022/11/23 00:30:52;;;;;;;4.55;2.30;;;;;;;4.42;80.36;98177.25;342590;28;1266;-69
2022/11/23 00:31:08;;;;;;;4.85;2.42;;;;;;;4.48;80.20;98183.94;343407;28;1379;-69
2022/11/23 00:31:20;;;;;;;4.38;2.40;;;;;;;4.49;80.70;98181.31;342978;28;1862;-69
2022/11/23 00:31:32;;;;;;;4.72;2.40;;;;;;;4.54;80.73;98184.56;342335;28;1172;-69
2022/11/23 00:31:44;;;;;;;5.75;2.40;;;;;;;4.58;80.46;98177.59;342098;28;1068;-69
2022/11/23 00:31:56;;;;;;;6.32;2.50;;;;;;;4.60;80.45;98184.38;342270;28;1197;-69
2022/11/23 00:32:08;;;;;;;5.68;2.55;;;;;;;4.63;80.63;98178.31;342164;28;1203;-69
2022/11/23 00:32:20;;;;;;;3.92;2.40;;;;;;;4.66;80.21;98178.19;342100;28;1394;-69
2022/11/23 00:32:32;;;;;;;3.90;2.42;;;;;;;4.69;80.72;98178.13;341047;29;1012;-69
2022/11/23 00:32:44;;;;;;;3.97;2.20;;;;;;;4.71;80.92;98181.47;340915;29;1084;-69
2022/11/23 00:32:56;;;;;;;4.32;2.10;;;;;;;4.72;80.75;98182.31;342391;28;1241;-69
2022/11/23 00:33:09;;;;;;;3.85;2.20;;;;;;;4.71;80.44;98180.63;342277;28;1040;-69
2022/11/23 00:33:21;;;;;;;4.05;2.35;;;;;;;4.73;80.59;98184.84;342849;28;1835;-69
2022/11/23 00:33:33;;;;;;;3.97;2.40;;;;;;;4.76;80.23;98179.56;344785;28;1930;-69
2022/11/23 00:33:50;;;;;;;4.40;2.30;;;;;;;4.78;80.01;98182.94;344659;28;1160;-69
2022/11/23 00:34:02;;;;;;;5.75;1.90;;;;;;;4.80;79.97;98180.31;344764;28;1249;-69
2022/11/23 00:34:14;;;;;;;6.50;2.00;;;;;;;4.80;79.84;98181.16;344913;28;1157;-69
2022/11/23 00:34:26;;;;;;;5.20;1.90;;;;;;;4.78;79.53;98185.53;343614;28;1141;-69
2022/11/23 00:34:39;;;;;;;5.10;2.30;;;;;;;4.79;79.48;98184.66;342541;28;761;-69
2022/11/23 00:34:51;;;;;;;4.85;2.40;;;;;;;4.70;79.06;98184.09;342156;28;1080;-69
2022/11/23 00:35:03;;;;;;;4.00;2.22;;;;;;;4.70;79.46;98184.94;342476;28;1533;-69
2022/11/23 00:35:15;;;;;;;3.97;2.25;;;;;;;4.65;78.68;98176.53;340956;29;1174;-69
2022/11/23 00:35:27;;;;;;;4.88;2.20;;;;;;;4.56;78.29;98177.66;342267;28;1035;-69
2022/11/23 00:35:39;;;;;;;5.00;2.03;;;;;;;4.48;78.00;98177.06;340264;29;1354;-69
2022/11/23 00:36:03;;;;;;;5.38;2.17;;;;;;;4.42;78.15;98179.81;339849;29;1556;-69
2022/11/23 00:36:15;;;;;;;4.40;2.30;;;;;;;4.31;77.79;98177.59;341931;28;1802;-69
2022/11/23 00:36:27;;;;;;;4.13;2.13;;;;;;;4.30;78.16;98175.91;339726;29;1071;-69
2022/11/23 00:36:39;;;;;;;3.85;2.03;;;;;;;4.34;77.55;98182.63;340201;29;1189;-69
2022/11/23 00:36:51;;;;;;;3.20;1.80;;;;;;;4.36;77.25;98175.69;341059;29;1060;-69
2022/11/23 00:37:03;;;;;;;3.75;1.90;;;;;;;4.35;77.30;98179.19;341050;29;1103;-69
2022/11/23 00:37:15;;;;;;;5.03;2.08;;;;;;;4.32;78.06;98179.25;342713;28;1052;-69
2022/11/23 00:37:27;;;;;;;5.13;2.08;;;;;;;4.26;77.89;98174.31;342586;28;2116;-69
2022/11/23 00:37:39;;;;;;;4.10;1.90;;;;;;;4.26;78.50;98179.44;342397;28;1068;-69
2022/11/23 00:37:51;;;;;;;4.18;1.83;;;;;;;4.28;78.55;98182.81;343568;28;1030;-69
2022/11/23 00:38:03;;;;;;;4.47;1.85;;;;;;;4.28;78.27;98177.66;343492;28;1064;-69
2022/11/23 00:38:15;;;;;;;3.55;1.90;;;;;;;4.27;78.67;98185.47;343605;28;1644;-69
2022/11/23 00:38:27;;;;;;;4.28;1.95;;;;;;;4.26;78.32;98184.59;342191;28;1020;-69
2022/11/23 00:38:41;;;;;;;4.05;1.90;;;;;;;4.22;79.20;98185.56;342592;28;730;-69
2022/11/23 00:38:53;;;;;;;2.70;1.80;;;;;;;4.27;79.06;98178.56;342292;28;1293;-69
2022/11/23 00:39:05;;;;;;;2.60;1.80;;;;;;;4.32;79.06;98178.44;342693;28;741;-69
2022/11/23 00:39:18;;;;;;;3.53;1.70;;;;;;;4.37;79.06;98187.69;341885;28;1399;-69
2022/11/23 00:39:30;;;;;;;5.88;1.80;;;;;;;4.44;79.90;98182.34;342120;28;1051;-69
2022/11/23 00:39:42;;;;;;;5.90;1.85;;;;;;;4.47;79.73;98183.09;341053;28;1865;-69
2022/11/23 00:39:55;;;;;;;4.72;1.75;;;;;;;4.51;80.02;98176.13;341389;28;1021;-69
2022/11/23 00:40:08;;;;;;;2.65;1.70;;;;;;;4.55;80.02;98175.97;340818;29;1038;-69
2022/11/23 00:40:20;;;;;;;3.60;1.80;;;;;;;4.59;79.69;98181.88;340845;29;1305;-69
2022/11/23 00:40:32;;;;;;;3.72;1.85;;;;;;;4.63;79.50;98180.03;340870;29;1381;-69
2022/11/23 00:40:44;;;;;;;4.18;2.00;;;;;;;4.66;79.41;98175.63;338974;29;1091;-69
2022/11/23 00:40:58;;;;;;;4.22;2.08;;;;;;;4.69;79.65;98178.13;339596;29;1645;-69
2022/11/23 00:41:21;;;;;;;4.18;2.08;;;;;;;4.72;79.49;98183.16;339146;29;1080;-69
2022/11/23 00:41:33;;;;;;;4.50;2.03;;;;;;;4.74;80.23;98176.22;339488;29;1110;-69
2022/11/23 00:41:45;;;;;;;3.60;2.00;;;;;;;4.78;79.76;98182.94;339632;29;1082;-69
2022/11/23 00:41:58;;;;;;;3.15;1.95;;;;;;;4.81;79.69;98182.03;338484;29;1218;-69
2022/11/23 00:42:10;;;;;;;3.15;2.05;;;;;;;4.82;79.29;98181.13;337249;29;1240;-69
2022/11/23 00:42:22;;;;;;;3.67;2.05;;;;;;;4.83;79.60;98179.38;337919;29;1276;-69
2022/11/23 00:42:34;;;;;;;4.18;2.10;;;;;;;4.85;79.51;98181.03;336597;29;1828;-69
2022/11/23 00:42:49;;;;;;;3.95;2.22;;;;;;;4.84;79.47;98181.91;338047;29;1901;-69
2022/11/23 00:43:01;;;;;;;4.22;2.20;;;;;;;4.86;79.46;98184.44;338683;29;1764;-69
2022/11/23 00:43:13;;;;;;;4.55;2.30;;;;;;;4.88;79.71;98177.50;337721;29;2005;-69
2022/11/23 00:43:26;;;;;;;4.68;2.20;;;;;;;4.90;79.15;98180.88;338498;29;1068;-69
2022/11/23 00:43:38;;;;;;;4.82;2.40;;;;;;;4.75;78.99;98177.91;338142;29;1187;-69
2022/11/23 00:43:50;;;;;;;5.82;2.63;;;;;;;4.79;78.89;98179.50;337152;29;1427;-69
2022/11/23 00:44:02;;;;;;;5.00;2.70;;;;;;;4.78;79.38;98176.97;337756;29;1041;-69
2022/11/23 00:44:15;;;;;;;3.70;2.60;;;;;;;4.72;79.02;98174.59;338614;29;847;-69
2022/11/23 00:44:26;;;;;;;3.78;2.53;;;;;;;4.67;78.88;98177.31;339634;29;2001;-69
2022/11/23 00:44:39;;;;;;;5.05;2.78;;;;;;;4.67;78.99;98179.91;340344;29;1816;-69
2022/11/23 00:44:50;;;;;;;5.45;2.72;;;;;;;4.71;79.56;98176.34;340854;29;1040;-69
2022/11/23 00:45:03;;;;;;;5.47;2.70;;;;;;;4.72;79.29;98177.16;341068;29;1196;-69
2022/11/23 00:45:15;;;;;;;3.53;2.47;;;;;;;4.71;80.09;98176.34;341400;28;1028;-69
2022/11/23 00:45:27;;;;;;;4.22;2.33;;;;;;;4.67;79.92;98177.31;342451;28;1536;-69
2022/11/23 00:45:39;;;;;;;5.00;2.58;;;;;;;4.66;79.02;98177.38;343400;28;1076;-69
2022/11/23 00:46:01;;;;;;;5.65;2.67;;;;;;;4.65;79.42;98173.97;343863;28;1313;-69
2022/11/23 00:46:13;;;;;;;5.72;2.50;;;;;;;4.64;79.11;98179.16;343605;28;1261;-69
2022/11/23 00:46:27;;;;;;;6.53;2.60;;;;;;;4.56;79.20;98176.81;343859;28;1207;-69
2022/11/23 00:46:39;;;;;;;8.00;2.60;;;;;;;4.57;79.26;98175.94;343109;28;1555;-69
2022/11/23 00:46:51;;;;;;;6.75;2.67;;;;;;;4.57;79.35;98181.09;343954;28;1744;-69
2022/11/23 00:47:02;;;;;;;5.53;2.80;;;;;;;4.48;79.48;98178.78;343570;28;1181;-69
2022/11/23 00:47:15;;;;;;;4.30;2.80;;;;;;;4.50;79.47;98177.00;343836;28;1719;-69
2022/11/23 00:47:27;;;;;;;4.97;2.38;;;;;;;4.49;80.04;98176.19;342135;28;1250;-69
2022/11/23 00:47:39;;;;;;;5.57;2.50;;;;;;;4.44;79.92;98177.22;342201;28;1041;-69
2022/11/23 00:47:51;;;;;;;5.97;2.60;;;;;;;4.36;79.31;98178.28;342225;28;1355;-69
2022/11/23 00:48:03;;;;;;;5.13;2.58;;;;;;;4.33;79.50;98180.97;342178;28;1031;-69
2022/11/23 00:48:15;;;;;;;4.90;2.85;;;;;;;4.28;79.25;98177.66;342174;28;1209;-69
2022/11/23 00:48:27;;;;;;;4.53;2.65;;;;;;;4.24;79.33;98181.22;342188;28;1046;-69
2022/11/23 00:48:39;;;;;;;3.95;2.28;;;;;;;4.18;79.14;98176.28;343353;28;1872;-69
2022/11/23 00:48:54;;;;;;;4.78;2.35;;;;;;;4.14;79.17;98174.69;343654;28;1731;-69
2022/11/23 00:49:06;;;;;;;4.47;2.33;;;;;;;4.19;78.40;98180.53;344811;28;1196;-69
2022/11/23 00:49:18;;;;;;;4.63;2.40;;;;;;;4.18;78.55;98186.56;343772;28;1740;-70
2022/11/23 00:49:30;;;;;;;5.78;2.50;;;;;;;4.23;78.45;98182.13;342048;28;1032;-69
2022/11/23 00:49:42;;;;;;;6.32;2.45;;;;;;;4.30;78.21;98181.03;342066;28;1036;-69
2022/11/23 00:49:54;;;;;;;4.93;2.08;;;;;;;4.37;77.97;98177.41;342248;28;1155;-69
2022/11/23 00:50:07;;;;;;;4.68;2.05;;;;;;;4.37;77.60;98187.69;342816;28;1059;-69
2022/11/23 00:50:19;;;;;;;4.68;2.40;;;;;;;4.34;77.90;98181.78;342438;28;1205;-69
2022/11/23 00:50:31;;;;;;;6.28;2.45;;;;;;;4.34;77.45;98182.63;343468;28;1317;-69
2022/11/23 00:50:43;;;;;;;7.25;2.28;;;;;;;4.34;77.50;98181.78;343518;28;1095;-69
2022/11/23 00:50:55;;;;;;;6.05;2.25;;;;;;;4.35;77.34;98176.59;343419;28;1207;-69
2022/11/23 00:51:09;;;;;;;4.20;2.17;;;;;;;4.39;77.76;98185.91;343404;28;1320;-69
2022/11/23 00:51:28;;;;;;;3.88;2.28;;;;;;;4.45;77.51;98178.88;342740;28;1280;-69
2022/11/23 00:51:40;;;;;;;3.67;2.20;;;;;;;4.37;77.26;98186.84;342591;28;1789;-69
2022/11/23 00:51:52;;;;;;;4.43;2.10;;;;;;;4.29;76.82;98179.38;342308;28;1261;-69
2022/11/23 00:52:04;;;;;;;4.43;2.00;;;;;;;4.19;76.76;98183.94;342305;28;1043;-69
2022/11/23 00:52:16;;;;;;;4.88;1.90;;;;;;;4.14;76.79;98180.66;342143;28;1161;-69
2022/11/23 00:52:28;;;;;;;4.00;2.03;;;;;;;4.16;77.03;98181.47;343746;28;1075;-69
2022/11/23 00:52:40;;;;;;;3.90;2.30;;;;;;;4.16;76.59;98178.06;343568;28;1070;-69
2022/11/23 00:52:52;;;;;;;4.85;2.40;;;;;;;4.13;77.59;98178.16;341957;28;1851;-69
2022/11/23 00:53:04;;;;;;;5.65;2.55;;;;;;;4.16;77.22;98189.16;341673;28;2882;-69
2022/11/23 00:53:16;;;;;;;5.57;2.67;;;;;;;4.15;77.04;98181.53;341819;28;1939;-69
2022/11/23 00:53:28;;;;;;;5.15;2.70;;;;;;;4.22;77.01;98180.44;342217;28;1805;-69
2022/11/23 00:53:41;;;;;;;4.15;2.80;;;;;;;4.23;76.85;98179.56;341910;28;1344;-69
2022/11/23 00:53:53;;;;;;;3.72;2.90;;;;;;;4.25;77.16;98185.50;342201;28;1075;-69
2022/11/23 00:54:05;;;;;;;4.05;2.85;;;;;;;4.26;77.35;98176.88;342205;28;1111;-69
2022/11/23 00:54:17;;;;;;;3.58;2.50;;;;;;;4.26;77.81;98182.03;341346;28;2069;-69
2022/11/23 00:54:29;;;;;;;5.03;2.45;;;;;;;4.20;77.39;98185.66;341004;28;1219;-69
2022/11/23 00:54:41;;;;;;;5.57;2.47;;;;;;;4.18;77.56;98186.56;341591;28;730;-69
2022/11/23 00:54:53;;;;;;;6.22;2.47;;;;;;;4.15;77.29;98186.66;341961;28;1569;-69
2022/11/23 00:55:05;;;;;;;6.85;2.65;;;;;;;4.15;77.58;98181.53;342307;28;1535;-69
2022/11/23 00:55:17;;;;;;;7.70;3.08;;;;;;;4.16;77.17;98186.59;342225;28;2113;-69
2022/11/23 00:55:29;;;;;;;8.82;3.40;;;;;;;4.10;77.21;98183.38;343301;28;1229;-69
2022/11/23 00:55:50;;;;;;;6.13;3.72;;;;;;;4.12;77.06;98182.44;345022;28;1256;-69
2022/11/23 00:56:03;;;;;;;6.13;4.40;;;;;;;4.16;77.26;98183.19;343701;28;1453;-69
2022/11/23 00:56:15;;;;;;;6.22;4.57;;;;;;;4.18;76.62;98181.41;343553;28;1046;-69
2022/11/23 00:56:28;;;;;;;5.60;4.30;;;;;;;4.23;77.29;98174.41;341932;28;1882;-69
2022/11/23 00:56:40;;;;;;;4.95;4.32;;;;;;;4.25;76.57;98179.53;342248;28;1241;-70
2022/11/23 00:56:53;;;;;;;5.00;4.40;;;;;;;4.23;77.20;98179.56;342598;28;1311;-69
2022/11/23 00:57:05;;;;;;;5.22;4.32;;;;;;;4.21;76.67;98173.63;342610;28;1065;-69
2022/11/23 00:57:17;;;;;;;5.50;4.00;;;;;;;3.97;76.36;98186.31;342592;28;1409;-69
2022/11/23 00:57:28;;;;;;;5.10;3.60;;;;;;;3.82;76.73;98178.22;342924;28;1879;-69
2022/11/23 00:57:40;;;;;;;4.07;3.40;;;;;;;3.81;76.65;98182.53;342517;28;1353;-69
2022/11/23 00:57:52;;;;;;;4.43;3.28;;;;;;;3.79;76.90;98181.72;343452;28;1288;-69
2022/11/23 00:58:05;;;;;;;4.60;3.10;;;;;;;3.77;77.24;98178.34;342199;28;1083;-69
2022/11/23 00:58:16;;;;;;;5.70;3.10;;;;;;;3.81;77.17;98177.38;343296;28;1263;-69
2022/11/23 00:58:29;;;;;;;5.72;3.03;;;;;;;3.84;77.79;98177.28;342309;28;1148;-69
2022/11/23 00:58:41;;;;;;;5.82;3.20;;;;;;;3.89;78.13;98182.31;341583;28;1859;-69
2022/11/23 00:58:55;;;;;;;4.78;3.22;;;;;;;3.93;77.78;98177.00;341912;28;1169;-69
2022/11/23 00:59:08;;;;;;;5.20;3.50;;;;;;;3.97;77.77;98176.03;340825;29;1064;-69
2022/11/23 00:59:20;;;;;;;4.93;3.67;;;;;;;3.99;77.63;98171.69;341475;28;1347;-69
2022/11/23 00:59:32;;;;;;;5.30;3.70;;;;;;;4.02;77.69;98180.19;342235;28;1051;-69
2022/11/23 00:59:44;;;;;;;5.85;4.00;;;;;;;4.00;77.83;98178.53;341770;28;1746;-69
2022/11/23 00:59:56;;;;;;;6.15;4.07;;;;;;;4.00;77.07;98177.66;341984;28;1264;-69
2022/11/23 01:00:11;;;;;;;5.63;4.03;;;;;;;4.00;77.78;98175.97;341583;28;1819;-69
2022/11/23 01:00:23;;;;;;;6.45;3.90;;;;;;;4.02;77.44;98177.63;340280;29;1252;-69
2022/11/23 01:00:35;;;;;;;5.03;3.45;;;;;;;3.99;77.36;98181.97;340901;29;1038;-69
2022/11/23 01:00:47;;;;;;;4.95;3.20;;;;;;;3.91;77.57;98173.66;342211;28;1074;-69
2022/11/23 01:01:04;;;;;;;4.87;3.10;;;;;;;3.89;78.08;98174.59;342334;28;1272;-69
2022/11/23 01:01:18;;;;;;;5.25;3.40;;;;;;;3.92;78.42;98167.59;342060;28;1300;-69
2022/11/23 01:01:35;;;;;;;5.63;3.33;;;;;;;3.96;78.13;98171.78;342738;28;1253;-69
2022/11/23 01:01:47;;;;;;;5.07;3.00;;;;;;;3.99;77.85;98171.69;341618;28;1768;-69